Eurika — LYRZ — position and weather

sailwx.info

Track history (hours):
 
Tides and Currents Weather Stations Pressure Air Temp Water Temp Dewpoint Dewpoint Depression Visibility Wind Speed Wind Dir Waves Ship Positions

Eurika

Last reported at 2015-Jul-04 06:32 UTC. Time now 2015-Jul-05 15:04 UTC.
Position N 43°42' E 004°37'.

Length 79 m.

MMSI: 277335000.

Date/timePositionNaut miles runAvg speedWind from/ knotsBaromVisibWave heightAir tempDewpointWater temp
2015-Jul-04 06:32N 43°42' E 004°37'5 5.3
2015-Jul-04 05:33N 43°37' E 004°39'7 6.9
2015-Jul-04 04:33N 43°31' E 004°44'7 6.8
2015-Jul-04 03:32N 43°24' E 004°45'3 0.1
2015-Jul-03 08:33N 43°23' E 004°48'0 0.0
2015-Jul-03 07:33N 43°23' E 004°48'2 2.3
2015-Jul-03 06:33N 43°23' E 004°52'6 5.9
2015-Jul-03 05:33N 43°21' E 004°59'5 5.3
2015-Jul-03 04:33N 43°16' E 005°01'5 5.0
2015-Jul-03 03:32N 43°11' E 005°00'4 3.6
2015-Jul-03 02:33N 43°08' E 004°56'0 0.2
2015-Jul-03 01:33N 43°08' E 004°56'0 0.4
2015-Jul-03 00:33N 43°08' E 004°57'0 0.5
2015-Jul-02 23:33N 43°08' E 004°57'1 0.5
2015-Jul-02 22:33N 43°07' E 004°58'0 0.4
2015-Jul-02 21:33N 43°07' E 004°58'2 1.7
2015-Jul-02 20:33N 43°07' E 005°00'8 8.1
2015-Jul-02 19:33N 43°05' E 005°11'7 6.2
2015-Jul-02 18:30N 43°05' E 005°20'7 7.8
2015-Jul-02 17:33N 43°01' E 005°29'8 7.8
2015-Jul-02 16:33N 42°58' E 005°38'9 8.3
2015-Jul-02 15:32N 42°53' E 005°48'9 8.5
2015-Jul-02 14:29N 42°49' E 005°59'6 5.8
2015-Jul-02 13:32N 42°45' E 006°04'6 5.6
2015-Jul-02 12:28N 42°42' E 006°11'6 6.9
2015-Jul-02 11:33N 42°40' E 006°19'8 7.8
2015-Jul-02 10:32N 42°32' E 006°19'7 7.5
2015-Jul-02 09:33N 42°25' E 006°21'8 7.7
2015-Jul-02 08:33N 42°20' E 006°30'8 8.1
2015-Jul-02 07:33N 42°15' E 006°38'8 8.1
2015-Jul-02 06:33N 42°10' E 006°47'8 8.3
2015-Jul-02 05:33N 42°04' E 006°55'9 8.5
2015-Jul-02 04:33N 41°59' E 007°04'8 8.2
2015-Jul-02 03:33N 41°54' E 007°13'18 8.1
2015-Jul-02 01:22N 41°43' E 007°32'7 8.6
2015-Jul-02 00:32N 41°39' E 007°40'8 8.6
2015-Jul-01 23:33N 41°33' E 007°48'39 7.3
2015-Jul-01 18:14N 41°07' E 008°26'14 7.7
2015-Jul-01 16:22N 40°52' E 008°23'19 1.5
2015-Jul-01 03:32N 41°11' E 008°19'9 8.9
2015-Jul-01 02:33N 41°06' E 008°10'10 9.5
2015-Jul-01 01:32N 40°58' E 008°03'42 9.3
2015-Jun-30 21:04N 40°16' E 008°05'7 9.4
2015-Jun-30 20:19N 40°09' E 008°07'27 5.1
2015-Jun-30 15:04N 39°52' E 008°33'4 0.2
2015-Jun-29 21:31N 39°52' E 008°29'19 2.6
2015-Jun-29 14:09N 39°58' E 008°05'5 8.3
2015-Jun-29 13:33N 40°02' E 008°01'192 8.3
2015-Jun-28 14:32N 42°40' E 005°36'39 7.9
2015-Jun-28 09:33N 43°13' E 005°06'8 8.2
2015-Jun-28 08:33N 43°19' E 004°59'7 7.2
2015-Jun-28 07:33N 43°23' E 004°51'2 2.2
2015-Jun-28 06:33N 43°23' E 004°48'0 0.0
2015-Jun-28 05:33N 43°23' E 004°48'0 0.0
2015-Jun-28 04:33N 43°23' E 004°48'0 0.0
2015-Jun-28 03:33N 43°23' E 004°48'0 0.0
2015-Jun-28 02:33N 43°23' E 004°48'0 0.0
2015-Jun-28 01:33N 43°23' E 004°48'0 0.0
2015-Jun-28 00:33N 43°23' E 004°48'0 0.0
2015-Jun-27 23:33N 43°23' E 004°48'0 0.0
2015-Jun-27 22:33N 43°23' E 004°48'0 0.0
2015-Jun-27 21:33N 43°23' E 004°48'0 0.0
2015-Jun-27 20:33N 43°23' E 004°48'0 0.0
2015-Jun-27 19:33N 43°23' E 004°48'0 0.0
2015-Jun-27 18:33N 43°23' E 004°48'0 0.0
2015-Jun-27 17:33N 43°23' E 004°48'0 0.0
2015-Jun-27 16:33N 43°23' E 004°48'0 0.0
2015-Jun-27 15:33N 43°23' E 004°48'0 0.0
2015-Jun-27 14:33N 43°23' E 004°48'0 0.0
2015-Jun-27 13:33N 43°23' E 004°48'7 7.0
2015-Jun-27 12:33N 43°29' E 004°44'9 8.9
2015-Jun-27 11:33N 43°37' E 004°39'  
2015-Jun-25 05:30N 43°31' E 004°44'7 7.9
2015-Jun-25 04:33N 43°24' E 004°46'3 3.1
2015-Jun-25 03:33N 43°23' E 004°50'6 6.1
2015-Jun-25 02:33N 43°22' E 004°58'7 6.4
2015-Jun-25 01:32N 43°16' E 005°03'20 6.2
2015-Jun-24 22:19N 42°60' E 005°18'6 6.5
2015-Jun-24 21:19N 42°54' E 005°23'6 6.7
2015-Jun-24 20:29N 42°50' E 005°27'  
Track history (hours):
 
Tides and Currents Weather Stations Pressure Air Temp Water Temp Dewpoint Dewpoint Depression Visibility Wind Speed Wind Dir Waves Ship Positions

Eurika

Last reported at 2015-Jul-04 06:32 UTC. Time now 2015-Jul-05 15:04 UTC.
Position N 43°42' E 004°37'.

Length 79 m.

MMSI: 277335000.

Date/timePositionNaut miles runAvg speedWind from/ knotsBaromVisibWave heightAir tempDewpointWater temp
2015-Jul-04 06:32N 43°42' E 004°37'5 5.3
2015-Jul-04 05:33N 43°37' E 004°39'7 6.9
2015-Jul-04 04:33N 43°31' E 004°44'7 6.8
2015-Jul-04 03:32N 43°24' E 004°45'3 0.1
2015-Jul-03 08:33N 43°23' E 004°48'0 0.0
2015-Jul-03 07:33N 43°23' E 004°48'2 2.3
2015-Jul-03 06:33N 43°23' E 004°52'6 5.9
2015-Jul-03 05:33N 43°21' E 004°59'5 5.3
2015-Jul-03 04:33N 43°16' E 005°01'5 5.0
2015-Jul-03 03:32N 43°11' E 005°00'4 3.6
2015-Jul-03 02:33N 43°08' E 004°56'0 0.2
2015-Jul-03 01:33N 43°08' E 004°56'0 0.4
2015-Jul-03 00:33N 43°08' E 004°57'0 0.5
2015-Jul-02 23:33N 43°08' E 004°57'1 0.5
2015-Jul-02 22:33N 43°07' E 004°58'0 0.4
2015-Jul-02 21:33N 43°07' E 004°58'2 1.7
2015-Jul-02 20:33N 43°07' E 005°00'8 8.1
2015-Jul-02 19:33N 43°05' E 005°11'7 6.2
2015-Jul-02 18:30N 43°05' E 005°20'7 7.8
2015-Jul-02 17:33N 43°01' E 005°29'8 7.8
2015-Jul-02 16:33N 42°58' E 005°38'9 8.3
2015-Jul-02 15:32N 42°53' E 005°48'9 8.5
2015-Jul-02 14:29N 42°49' E 005°59'6 5.8
2015-Jul-02 13:32N 42°45' E 006°04'6 5.6
2015-Jul-02 12:28N 42°42' E 006°11'6 6.9
2015-Jul-02 11:33N 42°40' E 006°19'8 7.8
2015-Jul-02 10:32N 42°32' E 006°19'7 7.5
2015-Jul-02 09:33N 42°25' E 006°21'8 7.7
2015-Jul-02 08:33N 42°20' E 006°30'8 8.1
2015-Jul-02 07:33N 42°15' E 006°38'8 8.1
2015-Jul-02 06:33N 42°10' E 006°47'8 8.3
2015-Jul-02 05:33N 42°04' E 006°55'9 8.5
2015-Jul-02 04:33N 41°59' E 007°04'8 8.2
2015-Jul-02 03:33N 41°54' E 007°13'18 8.1
2015-Jul-02 01:22N 41°43' E 007°32'7 8.6
2015-Jul-02 00:32N 41°39' E 007°40'8 8.6
2015-Jul-01 23:33N 41°33' E 007°48'39 7.3
2015-Jul-01 18:14N 41°07' E 008°26'14 7.7
2015-Jul-01 16:22N 40°52' E 008°23'19 1.5
2015-Jul-01 03:32N 41°11' E 008°19'9 8.9
2015-Jul-01 02:33N 41°06' E 008°10'10 9.5
2015-Jul-01 01:32N 40°58' E 008°03'42 9.3
2015-Jun-30 21:04N 40°16' E 008°05'7 9.4
2015-Jun-30 20:19N 40°09' E 008°07'27 5.1
2015-Jun-30 15:04N 39°52' E 008°33'4 0.2
2015-Jun-29 21:31N 39°52' E 008°29'19 2.6
2015-Jun-29 14:09N 39°58' E 008°05'5 8.3
2015-Jun-29 13:33N 40°02' E 008°01'192 8.3
2015-Jun-28 14:32N 42°40' E 005°36'39 7.9
2015-Jun-28 09:33N 43°13' E 005°06'8 8.2
2015-Jun-28 08:33N 43°19' E 004°59'7 7.2
2015-Jun-28 07:33N 43°23' E 004°51'2 2.2
2015-Jun-28 06:33N 43°23' E 004°48'0 0.0
2015-Jun-28 05:33N 43°23' E 004°48'0 0.0
2015-Jun-28 04:33N 43°23' E 004°48'0 0.0
2015-Jun-28 03:33N 43°23' E 004°48'0 0.0
2015-Jun-28 02:33N 43°23' E 004°48'0 0.0
2015-Jun-28 01:33N 43°23' E 004°48'0 0.0
2015-Jun-28 00:33N 43°23' E 004°48'0 0.0
2015-Jun-27 23:33N 43°23' E 004°48'0 0.0
2015-Jun-27 22:33N 43°23' E 004°48'0 0.0
2015-Jun-27 21:33N 43°23' E 004°48'0 0.0
2015-Jun-27 20:33N 43°23' E 004°48'0 0.0
2015-Jun-27 19:33N 43°23' E 004°48'0 0.0
2015-Jun-27 18:33N 43°23' E 004°48'0 0.0
2015-Jun-27 17:33N 43°23' E 004°48'0 0.0
2015-Jun-27 16:33N 43°23' E 004°48'0 0.0
2015-Jun-27 15:33N 43°23' E 004°48'0 0.0
2015-Jun-27 14:33N 43°23' E 004°48'0 0.0
2015-Jun-27 13:33N 43°23' E 004°48'7 7.0
2015-Jun-27 12:33N 43°29' E 004°44'9 8.9
2015-Jun-27 11:33N 43°37' E 004°39'  
2015-Jun-25 05:30N 43°31' E 004°44'7 7.9
2015-Jun-25 04:33N 43°24' E 004°46'3 3.1
2015-Jun-25 03:33N 43°23' E 004°50'6 6.1
2015-Jun-25 02:33N 43°22' E 004°58'7 6.4
2015-Jun-25 01:32N 43°16' E 005°03'20 6.2
2015-Jun-24 22:19N 42°60' E 005°18'6 6.5
2015-Jun-24 21:19N 42°54' E 005°23'6 6.7
2015-Jun-24 20:29N 42°50' E 005°27'  

Dump ship's entire track history